Sarmenstorf, Switzerland

03:19 AM CEST am 23. Mai 2017 (GMT +0200)
Bogenstrasse | | Change Station

Höhe 1837 ft 47.31 °N, 8.25 °E | Updated 17 minutes ago

Teils Wolkig
Teils Wolkig
61.3 °F
gefühlte 61.3 °F
N
0.6
Wind Wechselnd Wind aus Nord-Nordost
Gusts 1.2 mph

Heute
Max. -- | schwach -- °F
--% Regenrisiko
Gestern
Max. -- | schwach -- °F
Precip. -- inch
Druck 30.09 inch
Sichtweite 6.2 Meilen
Wolken Wolkig 6900 ft
Taupunkt 49 °F
Feuchtigkeit 64%
Regen 0.00 inch
Schneehöhe Nicht verfügbar..
5:41 AM 9:06 PM
Letztes Viertel, 11% visible
METAR LSME 230050Z AUTO 23002KT 9999NDV BKN069 14/10 Q1019 RMK
Druck 30.09 inch
Sichtweite 6.2 Meilen
Wolken Wolkig 6900 ft
Taupunkt 49 °F
Feuchtigkeit 64%
Regen 0.00 inch
Schneehöhe Nicht verfügbar..
5:41 AM 9:06 PM
Letztes Viertel, 11% visible
METAR LSME 230050Z AUTO 23002KT 9999NDV BKN069 14/10 Q1019 RMK

Get Severe Weather Alerts

Thanks for signing up!

Be on the lookout for a verification email in your inbox.

You'll start receiving the daily forecast at 6 AM.

×

10-Day Weather Forecast

×

Almanac

Astronomie

May. 23, 2017 Aufgang Untergang
Genaue Zeit
Bürgerliche Dämmerung
Nautische Dämmerung
Astronomische Dämmerung
Mond
Länge des sichtbaren Lichts
Tageslänge
Tomorrow will be .
, % of the Moon is Illuminated

Heutige Rekorde

Country Highs Country Lows

Community

WunderPhotos

Category 6

Welcome to Category 6. This is the collective home for Weather Underground's featured writeups by Dr. Jeff Masters (right), Bob Henson (left), Chris Burt, and other regular contributors.

Nearby

Luftqualität

  Luftqualität LQ Index Schadstoff
Not available.

Schneehöhe

Station Depth Höhe

Erdbebenaktivität

Stadt Distance Mag. Time & Date
Minimum magnitude displayed is 2.5.

küstennahe Wassertemperaturen

Ort Temperatur

Stations

Wetterstationen in der Umgebung

Stationsstandort Temp. Windchill Taupunkt Feuchtigkeit Wind Precip. Höhe Aktualisiert Art